createdAt,value
2019-03-29T00:01:51.549Z,9.20
2019-03-29T00:04:22.459Z,9.20
2019-03-29T00:06:53.321Z,9.10
2019-03-29T00:09:24.156Z,9.10
2019-03-29T00:11:55.196Z,9.30
2019-03-29T00:14:26.104Z,9.20
2019-03-29T00:16:57.049Z,9.30
2019-03-29T00:19:28.122Z,9.00
2019-03-29T00:21:59.976Z,9.00
2019-03-29T00:24:30.774Z,9.00
2019-03-29T00:27:02.732Z,9.10
2019-03-29T00:29:33.600Z,9.10
2019-03-29T00:32:06.083Z,8.90
2019-03-29T00:34:37.218Z,9.10
2019-03-29T00:37:08.020Z,9.10
2019-03-29T00:39:39.017Z,9.30
2019-03-29T00:42:11.331Z,9.30
2019-03-29T00:44:42.014Z,9.20
2019-03-29T00:47:12.982Z,9.00
2019-03-29T00:49:43.868Z,9.00
2019-03-29T00:52:14.910Z,9.20
2019-03-29T00:54:45.842Z,9.10
2019-03-29T00:57:16.752Z,9.10
2019-03-29T00:59:47.824Z,9.20
2019-03-29T01:02:19.068Z,9.10
2019-03-29T01:04:50.212Z,9.10
2019-03-29T01:07:21.047Z,9.10
2019-03-29T01:09:51.880Z,9.10
2019-03-29T01:12:22.718Z,9.10
2019-03-29T01:14:53.515Z,9.00
2019-03-29T01:17:24.490Z,8.90
2019-03-29T01:19:56.066Z,8.90
2019-03-29T01:22:27.263Z,8.80
2019-03-29T01:24:58.152Z,9.00
2019-03-29T01:27:28.923Z,9.00
2019-03-29T01:30:00.659Z,9.00
2019-03-29T01:32:32.397Z,9.10
2019-03-29T01:35:04.134Z,9.10
2019-03-29T01:37:34.988Z,9.00
2019-03-29T01:40:06.558Z,8.90
2019-03-29T01:42:38.685Z,8.80
2019-03-29T01:45:10.911Z,8.90
2019-03-29T01:47:41.844Z,9.00
2019-03-29T01:50:12.799Z,8.90
2019-03-29T01:52:43.658Z,8.90
2019-03-29T01:55:14.532Z,9.00
2019-03-29T01:57:45.444Z,8.90
2019-03-29T02:00:30.743Z,9.00
2019-03-29T02:03:01.649Z,9.00
2019-03-29T02:05:32.535Z,9.10
2019-03-29T02:08:03.324Z,9.00
2019-03-29T02:10:34.105Z,9.00
2019-03-29T02:13:04.944Z,9.00
2019-03-29T02:15:35.818Z,9.10
2019-03-29T02:18:06.547Z,9.10
2019-03-29T02:20:37.506Z,9.10
2019-03-29T02:23:08.355Z,8.90
2019-03-29T02:25:39.130Z,8.80
2019-03-29T02:28:09.903Z,8.80
2019-03-29T02:30:40.887Z,8.80
2019-03-29T02:33:13.104Z,8.80
2019-03-29T02:35:43.915Z,8.60
2019-03-29T02:38:14.750Z,8.70
2019-03-29T02:40:45.600Z,8.70
2019-03-29T02:43:17.724Z,8.90
2019-03-29T02:45:48.489Z,8.80
2019-03-29T02:48:19.238Z,8.80
2019-03-29T02:50:50.046Z,8.90
2019-03-29T02:53:21.920Z,8.90
2019-03-29T02:55:52.819Z,8.70
2019-03-29T02:58:23.593Z,8.70
2019-03-29T03:00:54.539Z,8.70
2019-03-29T03:03:26.437Z,8.60
2019-03-29T03:05:57.294Z,8.70
2019-03-29T03:08:32.487Z,8.60
2019-03-29T03:11:00.545Z,8.50
2019-03-29T03:13:31.414Z,8.60
2019-03-29T03:16:02.314Z,8.70
2019-03-29T03:18:33.150Z,8.80
2019-03-29T03:21:04.006Z,8.70
2019-03-29T03:23:34.785Z,8.70
2019-03-29T03:26:05.621Z,8.60
2019-03-29T03:28:36.460Z,8.70
2019-03-29T03:31:07.224Z,8.60
2019-03-29T03:33:38.159Z,8.60
2019-03-29T03:36:10.299Z,8.60
2019-03-29T03:38:41.137Z,8.60
2019-03-29T03:41:11.903Z,8.60
2019-03-29T03:43:42.889Z,8.50
2019-03-29T03:46:13.771Z,8.70
2019-03-29T03:48:44.709Z,8.50
2019-03-29T03:51:16.005Z,8.70
2019-03-29T03:53:46.998Z,8.60
2019-03-29T03:56:20.490Z,8.50
2019-03-29T03:58:52.355Z,8.50
2019-03-29T04:01:23.189Z,8.50
2019-03-29T04:03:53.987Z,8.60
2019-03-29T04:06:25.979Z,8.80
2019-03-29T04:08:56.833Z,8.80
2019-03-29T04:11:27.667Z,8.50
2019-03-29T04:13:58.407Z,8.70
2019-03-29T04:16:30.245Z,8.80
2019-03-29T04:19:00.981Z,8.90
2019-03-29T04:21:31.836Z,8.80
2019-03-29T04:24:02.822Z,8.80
2019-03-29T04:26:35.120Z,8.80
2019-03-29T04:29:05.964Z,8.70
2019-03-29T04:31:36.792Z,8.70
2019-03-29T04:34:07.704Z,8.80
2019-03-29T04:36:39.691Z,8.70
2019-03-29T04:39:10.355Z,8.70
2019-03-29T04:41:41.363Z,8.50
2019-03-29T04:44:12.058Z,8.40
2019-03-29T04:46:43.927Z,8.40
2019-03-29T04:49:15.781Z,8.30
2019-03-29T04:51:46.784Z,8.20
2019-03-29T04:54:17.544Z,8.30
2019-03-29T04:56:49.615Z,8.20
2019-03-29T04:59:20.302Z,8.30
2019-03-29T05:01:51.244Z,8.30
2019-03-29T05:04:22.016Z,8.40
2019-03-29T05:06:53.980Z,8.50
2019-03-29T05:09:24.979Z,8.60
2019-03-29T05:11:55.680Z,8.60
2019-03-29T05:14:27.508Z,8.50
2019-03-29T05:16:59.873Z,8.50
2019-03-29T05:19:30.747Z,8.70
2019-03-29T05:22:01.496Z,8.80
2019-03-29T05:24:32.467Z,8.60
2019-03-29T05:27:04.382Z,8.60
2019-03-29T05:29:35.217Z,8.50
2019-03-29T05:32:06.154Z,8.70
2019-03-29T05:34:37.092Z,8.90
2019-03-29T05:37:11.513Z,8.80
2019-03-29T05:39:42.511Z,8.90
2019-03-29T05:42:13.354Z,8.90
2019-03-29T05:44:44.203Z,8.90
2019-03-29T05:47:16.147Z,8.80
2019-03-29T05:49:47.496Z,8.90
2019-03-29T05:52:18.670Z,8.80
2019-03-29T05:54:49.835Z,8.80
2019-03-29T05:57:21.270Z,8.80
2019-03-29T05:59:52.576Z,8.70
2019-03-29T06:02:23.802Z,8.80
2019-03-29T06:04:54.898Z,8.90
2019-03-29T06:07:28.202Z,8.90
2019-03-29T06:09:59.295Z,9.00
2019-03-29T06:12:30.481Z,9.20
2019-03-29T06:15:01.514Z,9.20
2019-03-29T06:17:33.470Z,9.10
2019-03-29T06:20:05.631Z,9.00
2019-03-29T06:22:36.679Z,9.00
2019-03-29T06:25:08.437Z,9.10
2019-03-29T06:27:40.614Z,9.10
2019-03-29T06:30:11.628Z,9.20
2019-03-29T06:32:42.478Z,9.30
2019-03-29T06:35:13.802Z,9.40
2019-03-29T06:37:47.951Z,9.50
2019-03-29T06:40:25.413Z,9.50
2019-03-29T06:42:56.822Z,9.50
2019-03-29T06:45:28.339Z,9.50
2019-03-29T06:48:02.448Z,9.50
2019-03-29T06:50:33.499Z,9.60
2019-03-29T06:53:04.523Z,9.70
2019-03-29T06:55:36.050Z,9.70
2019-03-29T06:58:08.522Z,9.90
2019-03-29T07:00:39.620Z,9.90
2019-03-29T07:03:11.212Z,10.00
2019-03-29T07:05:42.893Z,9.90
2019-03-29T07:08:17.318Z,9.80
2019-03-29T07:10:48.556Z,9.90
2019-03-29T07:13:21.443Z,9.90
2019-03-29T07:15:52.511Z,9.90
2019-03-29T07:18:25.684Z,9.90
2019-03-29T07:20:58.146Z,10.00
2019-03-29T07:23:31.695Z,10.10
2019-03-29T07:26:04.632Z,10.10
2019-03-29T07:28:36.592Z,10.20
2019-03-29T07:31:08.263Z,10.20
2019-03-29T07:33:40.641Z,10.20
2019-03-29T07:36:11.586Z,10.30
2019-03-29T07:38:42.287Z,10.30
2019-03-29T07:41:13.128Z,10.40
2019-03-29T07:43:44.031Z,10.40
2019-03-29T07:46:14.894Z,10.60
2019-03-29T07:48:47.478Z,10.60
2019-03-29T07:51:18.826Z,10.70
2019-03-29T07:53:51.536Z,10.70
2019-03-29T07:56:23.241Z,10.70
2019-03-29T07:58:57.398Z,10.90
2019-03-29T08:01:32.180Z,11.00
2019-03-29T08:04:01.812Z,11.10
2019-03-29T08:06:33.013Z,11.30
2019-03-29T08:09:06.246Z,11.50
2019-03-29T08:11:46.014Z,11.50
2019-03-29T08:14:10.282Z,11.70
2019-03-29T08:16:41.791Z,11.50
2019-03-29T08:19:16.584Z,11.60
2019-03-29T08:21:51.478Z,11.60
2019-03-29T08:24:26.886Z,11.80
2019-03-29T08:26:58.473Z,11.80
2019-03-29T08:29:33.085Z,11.70
2019-03-29T08:32:04.198Z,12.00
2019-03-29T08:34:35.996Z,12.10
2019-03-29T08:37:07.973Z,12.20
2019-03-29T08:39:40.599Z,12.10
2019-03-29T08:42:11.773Z,12.20
2019-03-29T08:44:43.327Z,12.30
2019-03-29T08:47:14.761Z,12.50
2019-03-29T08:49:46.333Z,12.60
2019-03-29T08:52:17.551Z,12.70
2019-03-29T08:54:51.364Z,12.80
2019-03-29T08:57:23.968Z,12.80
2019-03-29T08:59:55.301Z,12.80
2019-03-29T09:02:26.495Z,13.10
2019-03-29T09:04:57.592Z,13.20
2019-03-29T09:07:28.478Z,13.30
2019-03-29T09:10:00.434Z,13.30
2019-03-29T09:12:31.660Z,13.50
2019-03-29T09:15:04.094Z,13.50
2019-03-29T09:17:36.065Z,13.50
2019-03-29T09:20:10.589Z,13.50
2019-03-29T09:22:40.685Z,13.70
2019-03-29T09:25:12.004Z,13.90
2019-03-29T09:27:43.093Z,13.80
2019-03-29T09:30:15.505Z,14.00
2019-03-29T09:32:50.929Z,14.00
2019-03-29T09:35:20.679Z,14.10
2019-03-29T09:37:56.373Z,14.20
2019-03-29T09:40:26.175Z,14.30
2019-03-29T09:43:07.259Z,14.20
2019-03-29T09:45:31.004Z,14.30
2019-03-29T09:48:02.047Z,14.10
2019-03-29T09:50:34.643Z,13.90
2019-03-29T09:53:07.267Z,14.00
2019-03-29T09:55:39.088Z,13.90
2019-03-29T09:58:10.765Z,14.10
2019-03-29T10:00:44.022Z,14.30
2019-03-29T10:03:14.949Z,14.40
2019-03-29T10:05:47.348Z,14.30
2019-03-29T10:08:19.392Z,14.00
2019-03-29T10:10:52.149Z,13.90
2019-03-29T10:13:23.217Z,14.10
2019-03-29T10:15:54.811Z,13.90
2019-03-29T10:18:26.118Z,13.90
2019-03-29T10:20:59.044Z,13.80
2019-03-29T10:23:31.226Z,13.90
2019-03-29T10:26:02.586Z,13.70
2019-03-29T10:28:34.102Z,13.80
2019-03-29T10:31:06.780Z,13.80
2019-03-29T10:33:39.085Z,14.00
2019-03-29T10:36:10.001Z,14.30
2019-03-29T10:38:41.136Z,14.30
2019-03-29T10:41:13.261Z,14.20
2019-03-29T10:43:44.668Z,14.10
2019-03-29T10:46:15.759Z,14.00
2019-03-29T10:48:46.817Z,13.80
2019-03-29T10:51:20.577Z,13.80
2019-03-29T10:53:51.478Z,13.80
2019-03-29T10:56:33.907Z,13.60
2019-03-29T10:58:55.927Z,13.70
2019-03-29T11:01:28.711Z,13.50
2019-03-29T11:04:02.413Z,13.50
2019-03-29T11:06:34.915Z,13.60
2019-03-29T11:09:09.429Z,13.30
2019-03-29T11:11:42.433Z,13.40
2019-03-29T11:14:13.821Z,13.20
2019-03-29T11:16:48.087Z,13.10
2019-03-29T11:19:20.615Z,13.20
2019-03-29T11:21:52.843Z,13.30
2019-03-29T11:24:24.974Z,13.40
2019-03-29T11:26:56.048Z,13.60
2019-03-29T11:29:28.078Z,13.70
2019-03-29T11:31:59.871Z,14.00
2019-03-29T11:34:30.732Z,13.90
2019-03-29T11:37:01.848Z,13.60
2019-03-29T11:39:32.995Z,13.50
2019-03-29T11:42:05.267Z,13.40
2019-03-29T11:44:36.774Z,13.50
2019-03-29T11:47:08.593Z,13.70
2019-03-29T11:49:39.914Z,14.00
2019-03-29T11:52:13.695Z,13.90
2019-03-29T11:54:45.559Z,14.00
2019-03-29T11:57:17.591Z,13.90
2019-03-29T11:59:48.690Z,14.00
2019-03-29T12:02:31.293Z,14.10
2019-03-29T12:04:56.399Z,14.30
2019-03-29T12:07:28.304Z,14.40
2019-03-29T12:09:59.702Z,14.20
2019-03-29T12:12:31.858Z,14.20
2019-03-29T12:15:02.875Z,14.20
2019-03-29T12:17:36.282Z,14.50
2019-03-29T12:20:08.831Z,15.00
2019-03-29T12:22:40.971Z,15.10
2019-03-29T12:25:12.056Z,15.30
2019-03-29T12:27:43.053Z,15.30
2019-03-29T12:30:30.483Z,15.50
2019-03-29T12:32:48.272Z,15.30
2019-03-29T12:35:19.818Z,15.10
2019-03-29T12:37:50.931Z,15.40
2019-03-29T12:40:22.351Z,15.20
2019-03-29T12:42:53.287Z,15.50
2019-03-29T12:45:24.609Z,15.10
2019-03-29T12:47:55.647Z,14.90
2019-03-29T12:50:27.047Z,15.10
2019-03-29T12:52:59.832Z,15.20
2019-03-29T12:55:31.122Z,15.20
2019-03-29T12:58:02.443Z,15.00
2019-03-29T13:00:33.596Z,14.90
2019-03-29T13:03:05.056Z,14.90
2019-03-29T13:05:35.870Z,14.80
2019-03-29T13:08:06.983Z,14.70
2019-03-29T13:10:38.596Z,14.40
2019-03-29T13:13:11.665Z,14.40
2019-03-29T13:15:43.031Z,14.40
2019-03-29T13:18:15.260Z,14.40
2019-03-29T13:20:46.707Z,14.20
2019-03-29T13:23:19.889Z,14.20
2019-03-29T13:25:50.879Z,14.30
2019-03-29T13:28:22.209Z,14.30
2019-03-29T13:30:53.302Z,14.20
2019-03-29T13:33:26.627Z,13.90
2019-03-29T13:35:57.930Z,13.90
2019-03-29T13:38:28.860Z,13.90
2019-03-29T13:40:59.680Z,13.90
2019-03-29T13:43:33.157Z,13.90
2019-03-29T13:46:06.988Z,13.90
2019-03-29T13:48:39.176Z,13.90
2019-03-29T13:51:12.133Z,14.20
2019-03-29T13:53:47.755Z,14.20
2019-03-29T13:56:19.252Z,14.30
2019-03-29T13:58:50.872Z,14.40
2019-03-29T14:01:22.438Z,14.50
2019-03-29T14:03:53.263Z,14.40
2019-03-29T14:06:24.621Z,14.50
2019-03-29T14:08:55.969Z,14.70
2019-03-29T14:11:27.329Z,14.70
2019-03-29T14:13:59.318Z,14.60
2019-03-29T14:16:30.828Z,14.60
2019-03-29T14:19:02.923Z,14.60
2019-03-29T14:21:33.707Z,14.40
2019-03-29T14:24:04.771Z,14.10
2019-03-29T14:26:36.493Z,13.90
2019-03-29T14:29:07.365Z,13.90
2019-03-29T14:31:39.971Z,13.90
2019-03-29T14:34:11.771Z,13.90
2019-03-29T14:36:43.247Z,14.00
2019-03-29T14:39:14.186Z,13.90
2019-03-29T14:41:46.147Z,14.20
2019-03-29T14:44:17.776Z,14.30
2019-03-29T14:46:48.742Z,14.40
2019-03-29T14:49:19.491Z,14.40
2019-03-29T14:51:51.976Z,14.50
2019-03-29T14:54:22.881Z,14.50
2019-03-29T14:56:53.688Z,14.50
2019-03-29T14:59:24.471Z,14.70
2019-03-29T15:01:55.388Z,14.60
2019-03-29T15:04:26.407Z,14.50
2019-03-29T15:06:58.073Z,14.50
2019-03-29T15:09:28.991Z,14.50
2019-03-29T15:12:00.992Z,14.40
2019-03-29T15:14:31.889Z,14.30
2019-03-29T15:17:02.837Z,14.20
2019-03-29T15:19:33.599Z,14.30
2019-03-29T15:22:06.068Z,14.20
2019-03-29T15:24:37.066Z,14.10
2019-03-29T15:27:08.045Z,14.20
2019-03-29T15:29:38.983Z,14.20
2019-03-29T15:32:11.200Z,14.30
2019-03-29T15:34:42.190Z,14.20
2019-03-29T15:37:12.985Z,14.10
2019-03-29T15:39:43.758Z,14.10
2019-03-29T15:42:15.684Z,14.00
2019-03-29T15:44:46.654Z,13.90
2019-03-29T15:47:17.461Z,13.80
2019-03-29T15:49:55.772Z,13.70
2019-03-29T15:52:22.574Z,13.60
2019-03-29T15:54:53.784Z,13.60
2019-03-29T15:57:25.512Z,13.60
2019-03-29T15:59:56.993Z,13.60
2019-03-29T16:02:30.152Z,13.60
2019-03-29T16:05:02.592Z,13.60
2019-03-29T16:07:35.083Z,13.50
2019-03-29T16:10:07.411Z,13.60
2019-03-29T16:12:39.988Z,13.60
2019-03-29T16:15:12.088Z,13.50
2019-03-29T16:17:43.541Z,13.50
2019-03-29T16:20:14.606Z,13.20
2019-03-29T16:22:45.740Z,13.20
2019-03-29T16:25:17.079Z,13.10
2019-03-29T16:27:48.625Z,13.00
2019-03-29T16:30:20.023Z,13.00
2019-03-29T16:32:52.649Z,13.00
2019-03-29T16:35:24.150Z,13.00
2019-03-29T16:37:57.315Z,12.90
2019-03-29T16:40:30.865Z,12.80
2019-03-29T16:43:02.168Z,12.80
2019-03-29T16:45:46.859Z,12.70
2019-03-29T16:48:07.054Z,12.70
2019-03-29T16:50:39.097Z,12.70
2019-03-29T16:53:11.246Z,12.60
2019-03-29T16:55:42.202Z,12.40
2019-03-29T16:58:13.004Z,12.20
2019-03-29T17:00:43.883Z,12.00
2019-03-29T17:03:14.671Z,11.80
2019-03-29T17:05:45.520Z,11.60
2019-03-29T17:08:16.344Z,11.30
2019-03-29T17:10:47.768Z,11.30
2019-03-29T17:13:19.028Z,11.10
2019-03-29T17:16:01.532Z,10.90
2019-03-29T17:18:29.483Z,10.80
2019-03-29T17:20:58.430Z,10.90
2019-03-29T17:23:31.131Z,10.60
2019-03-29T17:26:04.822Z,10.70
2019-03-29T17:28:35.977Z,10.50
2019-03-29T17:31:14.252Z,10.40
2019-03-29T17:33:47.394Z,10.30
2019-03-29T17:36:18.675Z,10.40
2019-03-29T17:38:49.988Z,10.60
2019-03-29T17:41:21.405Z,10.40
2019-03-29T17:43:52.487Z,10.40
2019-03-29T17:46:23.781Z,10.10
2019-03-29T17:48:55.110Z,10.00
2019-03-29T17:51:26.240Z,10.00
2019-03-29T17:53:59.820Z,9.80
2019-03-29T17:56:31.965Z,10.00
2019-03-29T17:59:03.501Z,9.90
2019-03-29T18:01:39.044Z,9.90
2019-03-29T18:04:09.777Z,9.70
2019-03-29T18:06:40.720Z,9.50
2019-03-29T18:09:12.042Z,9.40
2019-03-29T18:11:43.512Z,9.10
2019-03-29T18:14:15.859Z,9.00
2019-03-29T18:16:46.755Z,9.10
2019-03-29T18:19:17.515Z,9.50
2019-03-29T18:21:48.462Z,9.30
2019-03-29T18:24:20.575Z,9.30
2019-03-29T18:26:51.594Z,9.30
2019-03-29T18:29:22.313Z,9.30
2019-03-29T18:31:53.879Z,8.70
2019-03-29T18:34:25.472Z,8.30
2019-03-29T18:36:58.011Z,8.40
2019-03-29T18:39:29.934Z,8.50
2019-03-29T18:42:00.781Z,8.50
2019-03-29T18:44:31.678Z,8.50
2019-03-29T18:47:03.910Z,8.60
2019-03-29T18:49:41.097Z,8.40
2019-03-29T18:52:13.182Z,8.50
2019-03-29T18:54:47.385Z,8.40
2019-03-29T18:57:20.167Z,8.40
2019-03-29T19:02:22.131Z,8.20
2019-03-29T19:04:54.092Z,8.40
2019-03-29T19:07:30.472Z,8.40
2019-03-29T19:10:04.272Z,8.40
2019-03-29T19:12:35.179Z,8.10
2019-03-29T19:15:09.788Z,8.00
2019-03-29T19:17:40.791Z,8.20
2019-03-29T19:20:26.658Z,8.10
2019-03-29T19:22:47.754Z,8.00
2019-03-29T19:25:21.688Z,8.10
2019-03-29T19:27:54.261Z,7.90
2019-03-29T19:30:26.301Z,7.80
2019-03-29T19:33:02.137Z,7.80
2019-03-29T19:35:37.063Z,7.70
2019-03-29T19:38:09.152Z,7.70
2019-03-29T19:40:45.858Z,7.60
2019-03-29T19:43:19.037Z,7.60
2019-03-29T19:45:52.530Z,7.70
2019-03-29T19:48:25.001Z,7.60
2019-03-29T19:50:56.921Z,7.40
2019-03-29T19:53:30.632Z,7.20
2019-03-29T19:56:02.862Z,7.00
2019-03-29T19:58:35.560Z,6.90
2019-03-29T20:01:07.834Z,6.90
2019-03-29T20:03:40.037Z,6.80
2019-03-29T20:06:13.223Z,6.80
2019-03-29T20:08:45.355Z,6.80
2019-03-29T20:11:21.163Z,6.80
2019-03-29T20:13:54.078Z,6.90
2019-03-29T20:16:27.789Z,6.70
2019-03-29T20:19:01.631Z,6.60
2019-03-29T20:21:34.008Z,6.70
2019-03-29T20:24:06.667Z,6.70
2019-03-29T20:26:40.539Z,6.60
2019-03-29T20:29:11.524Z,6.70
2019-03-29T20:31:43.713Z,6.50
2019-03-29T20:34:14.714Z,6.60
2019-03-29T20:36:47.929Z,6.50
2019-03-29T20:39:20.080Z,6.50
2019-03-29T20:41:52.078Z,6.40
2019-03-29T20:44:23.443Z,6.20
2019-03-29T20:46:56.104Z,6.10
2019-03-29T20:49:28.125Z,6.30
2019-03-29T20:51:59.721Z,6.40
2019-03-29T20:54:31.525Z,6.40
2019-03-29T20:57:04.131Z,6.50
2019-03-29T20:59:36.345Z,6.40
2019-03-29T21:02:07.337Z,6.50
2019-03-29T21:04:39.747Z,6.40
2019-03-29T21:07:12.852Z,6.50
2019-03-29T21:09:44.042Z,6.30
2019-03-29T21:12:15.181Z,6.20
2019-03-29T21:14:46.422Z,6.10
2019-03-29T21:17:24.006Z,5.90
2019-03-29T21:19:54.851Z,5.90
2019-03-29T21:22:25.834Z,5.90
2019-03-29T21:24:59.732Z,6.10
2019-03-29T21:27:33.290Z,6.10
2019-03-29T21:30:05.479Z,5.90
2019-03-29T21:32:37.482Z,6.00
2019-03-29T21:35:09.308Z,6.00
2019-03-29T21:37:41.251Z,6.00
2019-03-29T21:40:12.543Z,6.00
2019-03-29T21:42:43.616Z,6.00
2019-03-29T21:45:28.158Z,5.90
2019-03-29T21:48:01.910Z,5.90
2019-03-29T21:50:21.051Z,5.80
2019-03-29T21:52:51.902Z,5.90
2019-03-29T21:55:22.661Z,5.80
2019-03-29T21:57:54.444Z,5.60
2019-03-29T22:00:25.314Z,5.50
2019-03-29T22:02:56.053Z,5.70
2019-03-29T22:05:26.828Z,5.60
2019-03-29T22:07:59.053Z,5.80
2019-03-29T22:10:29.914Z,5.80
2019-03-29T22:13:00.647Z,5.80
2019-03-29T22:15:31.532Z,5.70
2019-03-29T22:18:06.753Z,5.60
2019-03-29T22:20:36.577Z,5.60
2019-03-29T22:23:07.647Z,5.60
2019-03-29T22:25:38.455Z,5.50
2019-03-29T22:28:09.419Z,5.50
2019-03-29T22:30:40.223Z,5.40
2019-03-29T22:33:11.194Z,5.40
2019-03-29T22:35:41.993Z,5.40
2019-03-29T22:38:13.988Z,5.40
2019-03-29T22:40:44.695Z,5.30
2019-03-29T22:43:15.555Z,5.30
2019-03-29T22:45:47.343Z,5.40
2019-03-29T22:48:18.112Z,5.30
2019-03-29T22:50:49.089Z,5.30
2019-03-29T22:53:19.776Z,5.30
2019-03-29T22:55:50.653Z,5.30
2019-03-29T22:58:22.548Z,5.20
2019-03-29T23:00:55.423Z,5.20
2019-03-29T23:03:26.749Z,5.30
2019-03-29T23:05:57.550Z,5.30
2019-03-29T23:08:28.347Z,5.40
2019-03-29T23:10:59.112Z,5.20
2019-03-29T23:13:31.515Z,5.20
2019-03-29T23:16:02.279Z,5.10
2019-03-29T23:18:34.389Z,5.10
2019-03-29T23:21:05.244Z,5.10
2019-03-29T23:23:36.055Z,5.00
2019-03-29T23:26:06.899Z,4.90
2019-03-29T23:28:39.393Z,5.00
2019-03-29T23:31:10.266Z,4.90
2019-03-29T23:33:41.067Z,4.90
2019-03-29T23:36:12.004Z,4.70
2019-03-29T23:38:42.755Z,4.60
2019-03-29T23:41:13.674Z,4.40
2019-03-29T23:43:44.523Z,4.40
2019-03-29T23:46:15.447Z,4.50
2019-03-29T23:48:46.487Z,4.60
2019-03-29T23:51:17.327Z,4.70
2019-03-29T23:53:48.156Z,4.70
2019-03-29T23:56:21.619Z,4.70
2019-03-29T23:58:52.384Z,4.70
